createdAt,value
2022-08-01T00:00:51.647Z,63.89
2022-08-01T00:01:51.686Z,50.89
2022-08-01T00:02:51.636Z,58.22
2022-08-01T00:03:51.617Z,45.49
2022-08-01T00:04:51.637Z,50.28
2022-08-01T00:05:51.613Z,58.66
2022-08-01T00:06:51.594Z,49.20
2022-08-01T00:07:51.588Z,62.01
2022-08-01T00:08:51.580Z,56.22
2022-08-01T00:09:51.613Z,48.43
2022-08-01T00:10:51.565Z,57.20
2022-08-01T00:11:59.521Z,49.15
2022-08-01T00:12:52.559Z,58.57
2022-08-01T00:13:51.543Z,48.90
2022-08-01T00:14:51.564Z,57.92
2022-08-01T00:15:54.359Z,53.56
2022-08-01T00:16:51.558Z,53.43
2022-08-01T00:17:51.505Z,61.48
2022-08-01T00:18:51.508Z,52.46
2022-08-01T00:19:51.517Z,62.00
2022-08-01T00:20:51.492Z,60.19
2022-08-01T00:21:52.084Z,52.54
2022-08-01T00:22:52.461Z,47.34
2022-08-01T00:23:52.460Z,47.25
2022-08-01T00:24:51.480Z,49.59
2022-08-01T00:25:51.446Z,45.49
2022-08-01T00:26:51.432Z,52.22
2022-08-01T00:27:51.424Z,53.06
2022-08-01T00:28:51.414Z,67.84
2022-08-01T00:30:13.999Z,63.78
2022-08-01T00:30:52.402Z,54.43
2022-08-01T00:31:51.423Z,61.76
2022-08-01T00:32:51.385Z,54.39
2022-08-01T00:33:51.377Z,57.44
2022-08-01T00:34:51.401Z,52.93
2022-08-01T00:35:51.363Z,51.22
2022-08-01T00:36:51.352Z,55.97
2022-08-01T00:37:51.339Z,50.01
2022-08-01T00:38:51.328Z,50.20
2022-08-01T00:39:51.350Z,49.74
2022-08-01T00:40:51.311Z,50.11
2022-08-01T00:41:59.849Z,50.60
2022-08-01T00:42:52.297Z,59.35
2022-08-01T00:43:51.293Z,61.16
2022-08-01T00:44:51.312Z,54.85
2022-08-01T00:45:51.269Z,52.96
2022-08-01T00:46:51.279Z,57.46
2022-08-01T00:47:55.307Z,57.43
2022-08-01T00:48:51.307Z,59.97
2022-08-01T00:49:51.273Z,51.15
2022-08-01T00:50:51.232Z,65.42
2022-08-01T00:51:51.224Z,50.96
2022-08-01T00:52:51.456Z,50.75
2022-08-01T00:53:52.428Z,66.96
2022-08-01T00:54:51.234Z,50.98
2022-08-01T00:55:51.197Z,52.35
2022-08-01T00:56:51.190Z,52.76
2022-08-01T00:58:05.813Z,47.45
2022-08-01T00:58:52.179Z,47.40
2022-08-01T00:59:51.193Z,47.89
2022-08-01T01:00:53.061Z,52.80
2022-08-01T01:01:51.188Z,52.50
2022-08-01T01:02:51.141Z,50.86
2022-08-01T01:03:59.701Z,48.66
2022-08-01T01:04:53.156Z,62.63
2022-08-01T01:05:51.112Z,58.42
2022-08-01T01:06:51.112Z,51.43
2022-08-01T01:07:51.099Z,55.23
2022-08-01T01:08:51.101Z,55.85
2022-08-01T01:09:51.120Z,57.55
2022-08-01T01:10:51.072Z,57.48
2022-08-01T01:11:51.067Z,54.77
2022-08-01T01:12:51.058Z,63.76
2022-08-01T01:13:51.179Z,61.19
2022-08-01T01:14:51.069Z,57.91
2022-08-01T01:15:51.043Z,54.30
2022-08-01T01:16:51.020Z,59.03
2022-08-01T01:17:52.034Z,51.80
2022-08-01T01:18:52.023Z,54.24
2022-08-01T01:19:51.046Z,59.26
2022-08-01T01:20:50.999Z,52.84
2022-08-01T01:21:50.998Z,48.69
2022-08-01T01:22:50.978Z,52.34
2022-08-01T01:23:50.979Z,65.60
2022-08-01T01:24:50.998Z,53.92
2022-08-01T01:25:50.960Z,62.19
2022-08-01T01:26:50.960Z,54.38
2022-08-01T01:27:50.943Z,56.02
2022-08-01T01:28:50.937Z,54.97
2022-08-01T01:29:59.899Z,48.57
2022-08-01T01:30:51.914Z,52.91
2022-08-01T01:31:50.920Z,52.03
2022-08-01T01:32:50.972Z,57.75
2022-08-01T01:33:50.895Z,56.45
2022-08-01T01:34:50.893Z,55.34
2022-08-01T01:35:50.915Z,51.93
2022-08-01T01:36:50.868Z,52.16
2022-08-01T01:37:50.876Z,48.78
2022-08-01T01:38:50.859Z,60.24
2022-08-01T01:39:54.392Z,48.91
2022-08-01T01:40:50.874Z,56.66
2022-08-01T01:41:50.832Z,51.07
2022-08-01T01:42:50.824Z,61.95
2022-08-01T01:43:50.823Z,61.41
2022-08-01T01:44:50.808Z,55.69
2022-08-01T01:45:50.834Z,52.21
2022-08-01T01:46:50.790Z,56.32
2022-08-01T01:47:50.789Z,51.93
2022-08-01T01:48:50.804Z,48.84
2022-08-01T01:49:50.765Z,58.26
2022-08-01T01:50:50.800Z,55.63
2022-08-01T01:52:01.968Z,55.72
2022-08-01T01:52:51.742Z,57.11
2022-08-01T01:53:50.744Z,63.02
2022-08-01T01:54:50.731Z,53.68
2022-08-01T01:55:50.751Z,50.28
2022-08-01T01:56:50.716Z,61.38
2022-08-01T01:57:50.713Z,54.71
2022-08-01T01:58:50.696Z,63.37
2022-08-01T01:59:50.691Z,58.61
2022-08-01T02:00:50.711Z,62.96
2022-08-01T02:01:58.263Z,60.67
2022-08-01T02:02:51.789Z,59.46
2022-08-01T02:03:50.654Z,56.32
2022-08-01T02:04:50.656Z,59.01
2022-08-01T02:05:50.677Z,64.80
2022-08-01T02:06:50.633Z,65.48
2022-08-01T02:07:50.636Z,61.28
2022-08-01T02:08:50.623Z,58.83
2022-08-01T02:09:50.614Z,60.87
2022-08-01T02:10:50.643Z,65.90
2022-08-01T02:12:08.442Z,61.35
2022-08-01T02:12:51.582Z,58.08
2022-08-01T02:13:50.578Z,63.87
2022-08-01T02:14:50.567Z,60.33
2022-08-01T02:16:00.008Z,57.99
2022-08-01T02:16:51.560Z,53.56
2022-08-01T02:17:50.548Z,52.38
2022-08-01T02:18:50.535Z,59.73
2022-08-01T02:19:50.525Z,62.23
2022-08-01T02:20:50.549Z,63.73
2022-08-01T02:21:50.512Z,53.98
2022-08-01T02:22:50.506Z,51.74
2022-08-01T02:23:50.496Z,51.14
2022-08-01T02:24:50.488Z,56.14
2022-08-01T02:26:10.748Z,59.34
2022-08-01T02:26:51.476Z,59.31
2022-08-01T02:27:50.467Z,56.77
2022-08-01T02:28:50.460Z,49.24
2022-08-01T02:29:50.447Z,64.77
2022-08-01T02:30:50.485Z,54.54
2022-08-01T02:31:50.433Z,66.06
2022-08-01T02:32:50.429Z,59.44
2022-08-01T02:33:50.411Z,54.23
2022-08-01T02:34:51.409Z,59.92
2022-08-01T02:36:29.052Z,54.24
2022-08-01T02:36:51.399Z,62.84
2022-08-01T02:37:50.397Z,56.07
2022-08-01T02:38:50.376Z,57.46
2022-08-01T02:39:51.366Z,52.82
2022-08-01T02:40:50.390Z,68.90
2022-08-01T02:41:50.359Z,61.06
2022-08-01T02:42:50.356Z,57.66
2022-08-01T02:43:53.455Z,55.63
2022-08-01T02:44:50.325Z,54.82
2022-08-01T02:45:50.354Z,59.95
2022-08-01T02:46:50.321Z,67.78
2022-08-01T02:47:50.308Z,63.06
2022-08-01T02:48:50.372Z,61.26
2022-08-01T02:49:53.735Z,64.66
2022-08-01T02:50:50.308Z,57.09
2022-08-01T02:51:50.286Z,58.02
2022-08-01T02:52:50.259Z,65.59
2022-08-01T02:53:50.252Z,54.82
2022-08-01T02:54:50.247Z,56.36
2022-08-01T02:55:50.266Z,61.13
2022-08-01T02:56:50.226Z,63.75
2022-08-01T02:57:52.546Z,54.45
2022-08-01T02:58:51.217Z,66.36
2022-08-01T02:59:50.203Z,65.19
2022-08-01T03:00:50.224Z,63.00
2022-08-01T03:01:50.231Z,56.53
2022-08-01T03:02:50.173Z,59.67
2022-08-01T03:03:50.163Z,65.52
2022-08-01T03:04:53.951Z,64.43
2022-08-01T03:05:52.175Z,60.77
2022-08-01T03:06:50.147Z,66.43
2022-08-01T03:07:50.132Z,59.04
2022-08-01T03:08:50.126Z,63.37
2022-08-01T03:09:50.118Z,60.96
2022-08-01T03:10:50.139Z,62.66
2022-08-01T03:11:50.103Z,63.68
2022-08-01T03:12:50.098Z,70.38
2022-08-01T03:13:50.102Z,65.44
2022-08-01T03:14:50.387Z,64.49
2022-08-01T03:15:50.068Z,57.80
2022-08-01T03:16:50.109Z,53.62
2022-08-01T03:17:50.075Z,67.77
2022-08-01T03:18:50.054Z,65.89
2022-08-01T03:19:50.047Z,62.43
2022-08-01T03:20:50.039Z,67.01
2022-08-01T03:21:50.050Z,67.57
2022-08-01T03:22:50.021Z,66.31
2022-08-01T03:23:53.491Z,63.64
2022-08-01T03:24:52.016Z,66.51
2022-08-01T03:25:49.998Z,67.06
2022-08-01T03:26:50.022Z,69.30
2022-08-01T03:27:49.985Z,66.60
2022-08-01T03:28:49.974Z,65.44
2022-08-01T03:29:49.970Z,56.30
2022-08-01T03:30:49.951Z,67.41
2022-08-01T03:31:49.975Z,66.58
2022-08-01T03:32:49.940Z,63.59
2022-08-01T03:33:49.933Z,67.18
2022-08-01T03:34:49.926Z,67.67
2022-08-01T03:35:49.922Z,64.81
2022-08-01T03:36:50.135Z,65.06
2022-08-01T03:38:14.839Z,57.85
2022-08-01T03:38:51.894Z,68.46
2022-08-01T03:39:49.880Z,58.93
2022-08-01T03:40:49.876Z,68.43
2022-08-01T03:41:52.554Z,60.42
2022-08-01T03:42:50.859Z,67.19
2022-08-01T03:43:49.855Z,65.99
2022-08-01T03:44:49.851Z,67.59
2022-08-01T03:45:49.839Z,64.71
2022-08-01T03:46:49.861Z,64.11
2022-08-01T03:47:49.817Z,61.35
2022-08-01T03:48:49.860Z,61.84
2022-08-01T03:49:49.806Z,66.71
2022-08-01T03:50:49.797Z,67.52
2022-08-01T03:51:49.827Z,68.24
2022-08-01T03:52:49.777Z,63.65
2022-08-01T03:53:49.795Z,66.58
2022-08-01T03:54:49.759Z,64.81
2022-08-01T03:55:49.753Z,64.85
2022-08-01T03:56:49.772Z,63.23
2022-08-01T03:57:49.737Z,63.55
2022-08-01T03:58:50.279Z,68.10
2022-08-01T03:59:49.724Z,62.29
2022-08-01T04:00:49.717Z,61.99
2022-08-01T04:01:49.797Z,63.38
2022-08-01T04:02:49.710Z,67.70
2022-08-01T04:03:49.687Z,64.84
2022-08-01T04:04:49.677Z,65.28
2022-08-01T04:05:49.674Z,68.49
2022-08-01T04:06:49.696Z,66.00
2022-08-01T04:07:49.661Z,64.78
2022-08-01T04:08:49.658Z,68.94
2022-08-01T04:09:49.643Z,62.99
2022-08-01T04:10:50.449Z,66.39
2022-08-01T04:11:49.660Z,64.05
2022-08-01T04:12:49.622Z,69.97
2022-08-01T04:13:49.613Z,70.76
2022-08-01T04:14:49.589Z,67.20
2022-08-01T04:15:50.592Z,66.04
2022-08-01T04:16:49.594Z,67.06
2022-08-01T04:17:49.603Z,70.40
2022-08-01T04:18:49.568Z,68.03
2022-08-01T04:19:49.564Z,63.74
2022-08-01T04:20:49.568Z,67.62
2022-08-01T04:21:49.547Z,68.31
2022-08-01T04:22:49.562Z,65.62
2022-08-01T04:23:51.333Z,71.56
2022-08-01T04:24:53.315Z,66.64
2022-08-01T04:25:51.510Z,64.65
2022-08-01T04:26:49.508Z,71.51
2022-08-01T04:27:51.770Z,67.25
2022-08-01T04:28:49.486Z,66.97
2022-08-01T04:29:49.471Z,60.47
2022-08-01T04:30:49.489Z,71.05
2022-08-01T04:31:49.468Z,68.04
2022-08-01T04:32:49.479Z,69.69
2022-08-01T04:33:49.444Z,65.79
2022-08-01T04:34:49.436Z,69.74
2022-08-01T04:36:03.541Z,67.93
2022-08-01T04:36:50.407Z,67.66
2022-08-01T04:37:49.451Z,70.93
2022-08-01T04:38:49.402Z,67.87
2022-08-01T04:39:51.014Z,69.51
2022-08-01T04:40:49.402Z,69.57
2022-08-01T04:41:49.368Z,67.23
2022-08-01T04:42:49.453Z,69.29
2022-08-01T04:43:49.354Z,70.16
2022-08-01T04:44:49.347Z,73.48
2022-08-01T04:45:49.342Z,66.42
2022-08-01T04:46:49.369Z,72.06
2022-08-01T04:47:49.366Z,71.56
2022-08-01T04:48:49.367Z,65.14
2022-08-01T04:49:49.551Z,72.09
2022-08-01T04:50:49.301Z,68.09
2022-08-01T04:51:49.295Z,67.78
2022-08-01T04:52:49.314Z,65.19
2022-08-01T04:53:49.277Z,71.33
2022-08-01T04:54:49.270Z,67.83
2022-08-01T04:55:49.266Z,72.34
2022-08-01T04:56:49.255Z,69.62
2022-08-01T04:57:49.282Z,71.52
2022-08-01T04:58:49.243Z,66.61
2022-08-01T04:59:49.233Z,70.56
2022-08-01T05:00:49.295Z,71.53
2022-08-01T05:01:49.268Z,65.06
2022-08-01T05:02:50.238Z,60.79
2022-08-01T05:03:49.195Z,69.06
2022-08-01T05:04:49.261Z,64.02
2022-08-01T05:05:49.175Z,69.10
2022-08-01T05:06:49.169Z,69.57
2022-08-01T05:07:49.199Z,70.91
2022-08-01T05:08:49.183Z,68.82
2022-08-01T05:09:49.153Z,67.52
2022-08-01T05:10:49.144Z,68.34
2022-08-01T05:11:49.121Z,66.87
2022-08-01T05:12:50.157Z,67.08
2022-08-01T05:13:49.116Z,66.81
2022-08-01T05:14:49.166Z,69.16
2022-08-01T05:15:49.122Z,70.63
2022-08-01T05:16:49.094Z,68.12
2022-08-01T05:17:49.117Z,67.25
2022-08-01T05:18:49.077Z,71.48
2022-08-01T05:19:49.151Z,72.69
2022-08-01T05:20:49.081Z,68.98
2022-08-01T05:21:49.046Z,69.14
2022-08-01T05:22:49.085Z,67.38
2022-08-01T05:23:49.048Z,68.42
2022-08-01T05:24:49.190Z,65.79
2022-08-01T05:25:56.408Z,69.90
2022-08-01T05:26:50.038Z,68.14
2022-08-01T05:27:50.811Z,68.99
2022-08-01T05:28:48.994Z,67.34
2022-08-01T05:29:48.989Z,68.82
2022-08-01T05:30:48.974Z,65.72
2022-08-01T05:31:48.974Z,70.88
2022-08-01T05:32:48.992Z,70.34
2022-08-01T05:33:48.950Z,68.91
2022-08-01T05:34:48.944Z,69.02
2022-08-01T05:35:49.468Z,67.78
2022-08-01T05:36:52.910Z,69.43
2022-08-01T05:37:49.949Z,67.48
2022-08-01T05:38:48.918Z,69.25
2022-08-01T05:39:48.906Z,69.21
2022-08-01T05:40:48.890Z,69.41
2022-08-01T05:41:48.886Z,68.52
2022-08-01T05:42:48.900Z,67.11
2022-08-01T05:43:48.887Z,69.44
2022-08-01T05:44:48.860Z,69.80
2022-08-01T05:45:48.854Z,67.85
2022-08-01T05:46:48.844Z,65.92
2022-08-01T05:47:48.871Z,69.21
2022-08-01T05:48:48.889Z,66.68
2022-08-01T05:49:48.818Z,70.06
2022-08-01T05:50:48.826Z,71.34
2022-08-01T05:51:48.830Z,72.35
2022-08-01T05:52:48.834Z,73.02
2022-08-01T05:53:48.796Z,65.94
2022-08-01T05:54:48.805Z,65.60
2022-08-01T05:55:48.784Z,70.98
2022-08-01T05:56:48.759Z,66.71
2022-08-01T05:57:48.793Z,71.35
2022-08-01T05:58:48.741Z,62.79
2022-08-01T05:59:48.776Z,64.15
2022-08-01T06:00:48.724Z,70.68
2022-08-01T06:01:48.748Z,66.50
2022-08-01T06:02:48.713Z,63.61
2022-08-01T06:03:48.737Z,64.55
2022-08-01T06:04:48.685Z,65.44
2022-08-01T06:05:48.684Z,68.17
2022-08-01T06:06:48.685Z,65.06
2022-08-01T06:07:48.697Z,63.78
2022-08-01T06:08:48.697Z,69.22
2022-08-01T06:09:48.668Z,71.49
2022-08-01T06:10:48.639Z,68.57
2022-08-01T06:11:48.641Z,70.87
2022-08-01T06:12:48.637Z,70.82
2022-08-01T06:13:49.095Z,69.30
2022-08-01T06:14:48.612Z,66.63
2022-08-01T06:15:48.619Z,67.56
2022-08-01T06:16:48.593Z,69.01
2022-08-01T06:17:48.587Z,68.86
2022-08-01T06:18:48.607Z,62.92
2022-08-01T06:19:48.567Z,64.50
2022-08-01T06:20:48.560Z,69.22
2022-08-01T06:21:48.549Z,69.85
2022-08-01T06:22:51.724Z,61.98
2022-08-01T06:23:48.567Z,65.30
2022-08-01T06:24:48.526Z,67.57
2022-08-01T06:25:48.522Z,67.41
2022-08-01T06:26:48.519Z,63.21
2022-08-01T06:27:48.522Z,64.48
2022-08-01T06:28:48.523Z,65.30
2022-08-01T06:29:53.478Z,70.11
2022-08-01T06:30:49.485Z,65.68
2022-08-01T06:31:48.496Z,65.92
2022-08-01T06:32:48.471Z,66.40
2022-08-01T06:33:48.485Z,68.68
2022-08-01T06:34:48.443Z,68.71
2022-08-01T06:35:48.434Z,69.28
2022-08-01T06:36:48.454Z,63.37
2022-08-01T06:37:48.419Z,64.81
2022-08-01T06:38:48.448Z,65.94
2022-08-01T06:39:48.398Z,69.09
2022-08-01T06:40:48.399Z,68.44
2022-08-01T06:41:48.388Z,63.40
2022-08-01T06:42:48.387Z,66.39
2022-08-01T06:44:20.311Z,67.73
2022-08-01T06:44:48.375Z,64.08
2022-08-01T06:45:48.363Z,64.52
2022-08-01T06:46:48.349Z,67.13
2022-08-01T06:47:50.558Z,69.83
2022-08-01T06:48:48.435Z,66.34
2022-08-01T06:49:48.327Z,64.43
2022-08-01T06:50:48.327Z,69.45
2022-08-01T06:51:48.340Z,65.48
2022-08-01T06:52:48.304Z,63.17
2022-08-01T06:53:48.337Z,66.01
2022-08-01T06:54:48.302Z,65.94
2022-08-01T06:55:48.280Z,66.78
2022-08-01T06:56:48.267Z,69.14
2022-08-01T06:57:48.265Z,67.81
2022-08-01T06:58:48.304Z,62.09
2022-08-01T06:59:51.956Z,68.94
2022-08-01T07:00:49.336Z,72.32
2022-08-01T07:01:48.234Z,69.21
2022-08-01T07:02:48.225Z,68.60
2022-08-01T07:03:52.689Z,65.73
2022-08-01T07:04:49.249Z,67.05
2022-08-01T07:05:48.204Z,68.70
2022-08-01T07:06:48.192Z,65.68
2022-08-01T07:07:48.194Z,68.68
2022-08-01T07:08:48.176Z,65.50
2022-08-01T07:09:48.204Z,68.24
2022-08-01T07:10:48.162Z,67.26
2022-08-01T07:11:48.150Z,70.13
2022-08-01T07:12:48.151Z,68.36
2022-08-01T07:13:48.134Z,67.78
2022-08-01T07:14:48.184Z,70.70
2022-08-01T07:15:48.130Z,68.33
2022-08-01T07:16:48.113Z,66.19
2022-08-01T07:17:48.110Z,64.97
2022-08-01T07:18:48.094Z,69.83
2022-08-01T07:19:48.126Z,66.19
2022-08-01T07:20:52.771Z,68.01
2022-08-01T07:21:49.402Z,68.93
2022-08-01T07:22:48.211Z,70.03
2022-08-01T07:23:48.075Z,69.07
2022-08-01T07:24:48.080Z,70.23
2022-08-01T07:25:50.826Z,61.71
2022-08-01T07:26:54.427Z,67.40
2022-08-01T07:27:49.032Z,70.93
2022-08-01T07:28:48.010Z,65.25
2022-08-01T07:29:48.036Z,70.48
2022-08-01T07:30:47.995Z,73.67
2022-08-01T07:31:48.014Z,64.35
2022-08-01T07:32:47.984Z,64.19
2022-08-01T07:33:49.259Z,70.50
2022-08-01T07:34:48.013Z,70.73
2022-08-01T07:35:47.956Z,68.12
2022-08-01T07:36:47.970Z,68.93
2022-08-01T07:37:49.226Z,70.84
2022-08-01T07:38:47.942Z,69.46
2022-08-01T07:39:47.964Z,68.84
2022-08-01T07:40:47.935Z,70.26
2022-08-01T07:42:05.973Z,67.46
2022-08-01T07:42:48.895Z,65.69
2022-08-01T07:43:57.149Z,71.27
2022-08-01T07:44:49.924Z,66.76
2022-08-01T07:45:47.897Z,67.12
2022-08-01T07:46:47.900Z,67.14
2022-08-01T07:47:47.870Z,69.35
2022-08-01T07:48:47.869Z,70.31
2022-08-01T07:49:48.001Z,68.17
2022-08-01T07:50:47.828Z,65.48
2022-08-01T07:52:03.694Z,68.41
2022-08-01T07:52:48.815Z,68.92
2022-08-01T07:53:47.807Z,68.09
2022-08-01T07:54:52.133Z,70.11
2022-08-01T07:55:48.805Z,69.62
2022-08-01T07:56:47.794Z,67.58
2022-08-01T07:57:47.790Z,68.03
2022-08-01T07:58:47.787Z,67.38
2022-08-01T07:59:47.804Z,66.67
2022-08-01T08:00:47.755Z,66.24
2022-08-01T08:01:47.864Z,68.02
2022-08-01T08:02:47.745Z,65.69
2022-08-01T08:03:47.757Z,62.20
2022-08-01T08:04:49.281Z,67.39
2022-08-01T08:05:58.698Z,66.67
2022-08-01T08:06:48.732Z,66.80
2022-08-01T08:07:47.710Z,63.05
2022-08-01T08:08:47.704Z,68.70
2022-08-01T08:09:51.236Z,63.25
2022-08-01T08:10:47.680Z,70.50
2022-08-01T08:11:48.455Z,67.23
2022-08-01T08:12:48.667Z,67.12
2022-08-01T08:13:47.686Z,70.34
2022-08-01T08:14:47.676Z,65.85
2022-08-01T08:15:48.563Z,66.54
2022-08-01T08:16:47.646Z,69.72
2022-08-01T08:17:52.610Z,66.97
2022-08-01T08:18:48.612Z,68.34
2022-08-01T08:19:47.651Z,64.06
2022-08-01T08:20:47.594Z,67.11
2022-08-01T08:21:47.594Z,67.98
2022-08-01T08:22:47.585Z,70.88
2022-08-01T08:23:47.603Z,66.34
2022-08-01T08:24:47.599Z,65.82
2022-08-01T08:25:47.576Z,65.35
2022-08-01T08:26:47.571Z,70.76
2022-08-01T08:27:47.549Z,64.54
2022-08-01T08:28:47.542Z,63.96
2022-08-01T08:29:47.562Z,67.55
2022-08-01T08:30:47.525Z,68.20
2022-08-01T08:31:51.947Z,65.97
2022-08-01T08:32:48.515Z,65.64
2022-08-01T08:33:47.539Z,68.48
2022-08-01T08:34:47.533Z,64.87
2022-08-01T08:35:54.224Z,68.05
2022-08-01T08:36:48.487Z,68.95
2022-08-01T08:37:49.186Z,67.54
2022-08-01T08:38:47.463Z,59.88
2022-08-01T08:39:47.494Z,65.54
2022-08-01T08:40:47.440Z,68.02
2022-08-01T08:41:49.438Z,63.10
2022-08-01T08:42:47.459Z,63.31
2022-08-01T08:43:47.413Z,67.31
2022-08-01T08:44:47.447Z,63.32
2022-08-01T08:45:59.247Z,70.39
2022-08-01T08:46:48.408Z,63.28
2022-08-01T08:47:47.394Z,67.19
2022-08-01T08:48:47.526Z,66.55
2022-08-01T08:49:49.424Z,64.20
2022-08-01T08:50:47.408Z,70.94
2022-08-01T08:51:47.363Z,67.76
2022-08-01T08:52:47.356Z,64.77
2022-08-01T08:53:47.344Z,64.41
2022-08-01T08:54:47.342Z,68.06
2022-08-01T08:55:56.232Z,64.54
2022-08-01T08:56:48.313Z,66.17
2022-08-01T08:57:47.335Z,68.00
2022-08-01T08:58:47.306Z,68.41
2022-08-01T08:59:47.311Z,67.67
2022-08-01T09:00:48.324Z,65.40
2022-08-01T09:01:47.276Z,67.70
2022-08-01T09:02:47.327Z,65.24
2022-08-01T09:03:47.272Z,63.32
2022-08-01T09:04:47.267Z,66.84
2022-08-01T09:05:47.279Z,66.88
2022-08-01T09:06:47.241Z,67.96
2022-08-01T09:07:47.242Z,67.33
2022-08-01T09:08:47.231Z,67.83
2022-08-01T09:09:47.246Z,61.12
2022-08-01T09:10:47.244Z,67.40
2022-08-01T09:11:57.458Z,64.60
2022-08-01T09:12:48.199Z,68.80
2022-08-01T09:13:47.273Z,64.58
2022-08-01T09:14:47.239Z,68.45
2022-08-01T09:15:47.211Z,59.78
2022-08-01T09:16:49.020Z,65.94
2022-08-01T09:17:48.158Z,65.74
2022-08-01T09:18:53.687Z,65.37
2022-08-01T09:19:48.142Z,66.23
2022-08-01T09:20:47.157Z,67.90
2022-08-01T09:21:47.144Z,66.62
2022-08-01T09:22:47.959Z,65.94
2022-08-01T09:23:54.285Z,67.22
2022-08-01T09:24:48.139Z,67.20
2022-08-01T09:25:47.950Z,68.85
2022-08-01T09:26:47.095Z,67.45
2022-08-01T09:27:47.078Z,67.88
2022-08-01T09:28:47.976Z,61.10
2022-08-01T09:29:49.836Z,65.64
2022-08-01T09:30:48.072Z,67.10
2022-08-01T09:31:47.618Z,67.10
2022-08-01T09:32:47.037Z,69.30
2022-08-01T09:33:47.034Z,61.56
2022-08-01T09:34:47.045Z,66.81
2022-08-01T09:35:48.003Z,66.93
2022-08-01T09:36:47.029Z,64.99
2022-08-01T09:37:47.368Z,67.40
2022-08-01T09:38:51.035Z,66.41
2022-08-01T09:39:47.980Z,67.96
2022-08-01T09:40:46.998Z,66.97
2022-08-01T09:41:46.965Z,67.47
2022-08-01T09:42:46.952Z,66.72
2022-08-01T09:43:46.949Z,67.09
2022-08-01T09:44:54.643Z,64.59
2022-08-01T09:45:50.704Z,65.60
2022-08-01T09:46:46.945Z,68.69
2022-08-01T09:47:46.941Z,62.39
2022-08-01T09:48:49.330Z,67.94
2022-08-01T09:49:52.109Z,64.18
2022-08-01T09:50:47.921Z,66.21
2022-08-01T09:51:59.529Z,60.42
2022-08-01T09:52:47.881Z,66.02
2022-08-01T09:53:51.442Z,59.07
2022-08-01T09:54:47.872Z,65.93
2022-08-01T09:55:46.889Z,65.94
2022-08-01T09:56:46.850Z,64.83
2022-08-01T09:57:46.861Z,65.92
2022-08-01T09:58:46.835Z,68.41
2022-08-01T09:59:58.247Z,68.76
2022-08-01T10:00:48.853Z,66.92
2022-08-01T10:01:46.819Z,66.75
2022-08-01T10:02:46.808Z,65.01
2022-08-01T10:03:46.867Z,67.51
2022-08-01T10:04:46.794Z,61.93
2022-08-01T10:05:49.940Z,66.13
2022-08-01T10:06:46.785Z,70.04
2022-08-01T10:07:46.779Z,64.68
2022-08-01T10:08:46.755Z,66.25
2022-08-01T10:09:46.761Z,63.91
2022-08-01T10:10:46.740Z,66.76
2022-08-01T10:11:46.754Z,63.61
2022-08-01T10:12:47.711Z,67.69
2022-08-01T10:13:46.715Z,67.12
2022-08-01T10:14:46.888Z,59.54
2022-08-01T10:15:46.697Z,64.08
2022-08-01T10:16:46.751Z,66.07
2022-08-01T10:17:50.274Z,63.76
2022-08-01T10:18:46.680Z,65.26
2022-08-01T10:19:46.693Z,64.48
2022-08-01T10:20:46.670Z,66.19
2022-08-01T10:21:57.744Z,62.78
2022-08-01T10:22:47.648Z,63.29
2022-08-01T10:23:46.637Z,60.99
2022-08-01T10:24:46.636Z,66.74
2022-08-01T10:25:47.326Z,59.21
2022-08-01T10:26:46.662Z,62.09
2022-08-01T10:27:46.612Z,64.20
2022-08-01T10:28:46.619Z,64.84
2022-08-01T10:30:05.565Z,65.97
2022-08-01T10:30:48.708Z,67.49
2022-08-01T10:31:50.574Z,61.52
2022-08-01T10:32:50.535Z,66.50
2022-08-01T10:33:51.637Z,61.59
2022-08-01T10:34:47.585Z,61.92
2022-08-01T10:35:48.175Z,64.91
2022-08-01T10:36:47.584Z,64.28
2022-08-01T10:37:52.205Z,62.32
2022-08-01T10:38:47.543Z,64.26
2022-08-01T10:39:47.004Z,63.77
2022-08-01T10:40:47.537Z,62.28
2022-08-01T10:41:46.550Z,66.34
2022-08-01T10:42:46.533Z,64.00
2022-08-01T10:43:47.098Z,63.66
2022-08-01T10:44:46.494Z,61.83
2022-08-01T10:45:46.498Z,61.39
2022-08-01T10:46:46.535Z,65.12
2022-08-01T10:47:50.731Z,63.31
2022-08-01T10:48:46.469Z,61.28
2022-08-01T10:49:46.471Z,66.86
2022-08-01T10:50:48.433Z,64.92
2022-08-01T10:51:52.358Z,61.56
2022-08-01T10:52:47.438Z,62.69
2022-08-01T10:53:46.437Z,66.82
2022-08-01T10:54:52.499Z,63.16
2022-08-01T10:55:47.424Z,63.86
2022-08-01T10:56:46.465Z,63.24
2022-08-01T10:57:52.673Z,64.92
2022-08-01T10:58:47.403Z,63.40
2022-08-01T10:59:50.726Z,67.40
2022-08-01T11:00:47.388Z,62.78
2022-08-01T11:01:46.427Z,63.05
2022-08-01T11:02:46.374Z,66.15
2022-08-01T11:03:57.057Z,62.03
2022-08-01T11:04:48.359Z,61.59
2022-08-01T11:05:46.353Z,63.56
2022-08-01T11:06:46.374Z,65.73
2022-08-01T11:07:46.361Z,66.07
2022-08-01T11:08:46.335Z,65.65
2022-08-01T11:09:51.354Z,66.48
2022-08-01T11:10:48.322Z,62.37
2022-08-01T11:11:46.350Z,65.67
2022-08-01T11:12:46.314Z,67.53
2022-08-01T11:13:46.293Z,64.31
2022-08-01T11:14:55.743Z,63.30
2022-08-01T11:15:50.520Z,66.39
2022-08-01T11:16:46.313Z,66.28
2022-08-01T11:17:46.296Z,63.72
2022-08-01T11:18:46.280Z,66.21
2022-08-01T11:19:46.270Z,64.89
2022-08-01T11:20:46.255Z,62.49
2022-08-01T11:21:58.127Z,65.02
2022-08-01T11:22:47.246Z,63.56
2022-08-01T11:23:46.239Z,62.65
2022-08-01T11:24:46.247Z,66.18
2022-08-01T11:26:05.441Z,61.67
2022-08-01T11:26:47.241Z,63.71
2022-08-01T11:27:46.206Z,66.72
2022-08-01T11:29:11.009Z,63.41
2022-08-01T11:29:48.195Z,65.49
2022-08-01T11:30:46.187Z,66.22
2022-08-01T11:31:46.223Z,68.12
2022-08-01T11:33:06.644Z,64.57
2022-08-01T11:33:48.176Z,68.50
2022-08-01T11:34:46.183Z,67.92
2022-08-01T11:35:46.149Z,66.65
2022-08-01T11:37:01.415Z,64.36
2022-08-01T11:37:48.171Z,62.05
2022-08-01T11:38:46.131Z,66.63
2022-08-01T11:39:46.131Z,69.33
2022-08-01T11:40:46.118Z,63.39
2022-08-01T11:41:46.114Z,62.42
2022-08-01T11:42:46.126Z,67.80
2022-08-01T11:43:46.091Z,64.36
2022-08-01T11:44:46.108Z,64.57
2022-08-01T11:45:46.077Z,66.26
2022-08-01T11:46:46.084Z,67.40
2022-08-01T11:47:46.115Z,63.64
2022-08-01T11:48:46.057Z,63.54
2022-08-01T11:49:49.372Z,59.14
2022-08-01T11:50:46.043Z,66.06
2022-08-01T11:51:46.033Z,65.93
2022-08-01T11:52:46.070Z,61.21
2022-08-01T11:53:46.030Z,67.00
2022-08-01T11:54:46.039Z,66.19
2022-08-01T11:55:51.155Z,65.51
2022-08-01T11:56:48.065Z,64.10
2022-08-01T11:57:46.044Z,61.56
2022-08-01T11:58:46.001Z,66.20
2022-08-01T11:59:45.992Z,63.77
2022-08-01T12:00:47.127Z,64.01
2022-08-01T12:01:45.969Z,66.87
2022-08-01T12:02:46.246Z,62.58
2022-08-01T12:03:46.060Z,64.80
2022-08-01T12:04:45.968Z,64.85
2022-08-01T12:05:45.940Z,61.44
2022-08-01T12:06:45.939Z,62.99
2022-08-01T12:07:46.982Z,64.42
2022-08-01T12:08:45.930Z,65.73
2022-08-01T12:09:45.951Z,67.97
2022-08-01T12:10:47.257Z,56.75
2022-08-01T12:11:45.905Z,65.43
2022-08-01T12:12:45.925Z,68.12
2022-08-01T12:13:45.899Z,60.48
2022-08-01T12:14:45.887Z,64.35
2022-08-01T12:15:45.883Z,65.05
2022-08-01T12:16:45.878Z,61.87
2022-08-01T12:17:57.563Z,65.46
2022-08-01T12:18:46.862Z,64.27
2022-08-01T12:19:45.872Z,64.20
2022-08-01T12:20:56.172Z,64.81
2022-08-01T12:21:47.840Z,62.54
2022-08-01T12:22:45.858Z,67.16
2022-08-01T12:23:45.824Z,60.41
2022-08-01T12:24:45.814Z,65.00
2022-08-01T12:25:45.803Z,66.38
2022-08-01T12:26:45.795Z,64.66
2022-08-01T12:27:45.837Z,66.60
2022-08-01T12:28:45.791Z,59.33
2022-08-01T12:29:45.804Z,66.40
2022-08-01T12:30:45.780Z,60.34
2022-08-01T12:31:45.766Z,58.92
2022-08-01T12:32:45.788Z,62.16
2022-08-01T12:33:45.750Z,65.21
2022-08-01T12:34:45.804Z,62.75
2022-08-01T12:35:45.739Z,61.47
2022-08-01T12:36:45.728Z,57.92
2022-08-01T12:37:45.756Z,68.95
2022-08-01T12:38:45.714Z,54.18
2022-08-01T12:39:45.732Z,64.97
2022-08-01T12:40:46.009Z,64.85
2022-08-01T12:41:45.695Z,71.09
2022-08-01T12:42:45.714Z,64.11
2022-08-01T12:43:45.679Z,66.47
2022-08-01T12:45:17.575Z,64.68
2022-08-01T12:45:56.737Z,63.95
2022-08-01T12:46:46.647Z,66.05
2022-08-01T12:47:45.677Z,63.06
2022-08-01T12:48:45.673Z,67.43
2022-08-01T12:49:45.638Z,66.28
2022-08-01T12:50:45.633Z,67.79
2022-08-01T12:51:45.636Z,65.02
2022-08-01T12:52:46.651Z,65.69